Time;durP1;ratioP1;P1;durP2;ratioP2;P2;SDS_P1;SDS_P2;PMS_P1;PMS_P2;Temp;Humidity;BMP_temperature;BMP_pressure;BME280_temperature;BME280_humidity;BME280_pressure;Samples;Min_cycle;Max_cycle;Signal;HPM_P1;HPM_P2
2024/01/09 08:53:09;;;;;;;22.30;5.67;;;23.30;58.70;;;;;;5103997;27;21103;-84
2024/01/09 08:55:36;;;;;;;60.67;8.23;;;23.10;55.70;;;;;;5080288;28;20285;-89
2024/01/09 08:58:03;;;;;;;67.87;8.60;;;23.40;56.20;;;;;;5084001;28;20278;-85
2024/01/09 09:00:30;;;;;;;59.37;7.93;;;23.70;55.60;;;;;;5084631;28;20254;-83
2024/01/09 09:02:57;;;;;;;20.97;4.07;;;24.10;55.10;;;;;;5082232;28;20256;-84
2024/01/09 09:05:24;;;;;;;43.10;6.70;;;24.30;54.70;;;;;;5074042;28;20234;-88
2024/01/09 09:07:51;;;;;;;79.77;9.67;;;24.50;53.90;;;;;;5081800;28;20559;-87
2024/01/09 09:10:20;;;;;;;32.30;5.20;;;24.60;53.30;;;;;;5070967;28;20613;-75
2024/01/09 09:12:47;;;;;;;43.70;6.80;;;24.80;52.80;;;;;;5085589;28;20345;-78
2024/01/09 09:15:14;;;;;;;57.90;8.07;;;24.80;52.80;;;;;;5083731;28;20199;-73
2024/01/09 09:17:41;;;;;;;70.60;9.93;;;24.90;51.90;;;;;;5081758;28;20211;-73
2024/01/09 09:20:11;;;;;;;51.80;8.57;;;24.90;51.00;;;;;;5085434;28;20250;-74
2024/01/09 09:22:38;;;;;;;41.55;6.38;;;24.90;51.20;;;;;;5084163;28;20427;-67
2024/01/09 09:25:07;;;;;;;37.57;6.07;;;24.80;47.50;;;;;;5082345;28;20312;-70
2024/01/09 09:27:36;;;;;;;42.50;6.23;;;24.70;49.80;;;;;;5068054;28;20199;-68
2024/01/09 09:30:04;;;;;;;37.63;6.67;;;24.80;50.50;;;;;;5083821;28;20566;-71
2024/01/09 09:32:32;;;;;;;35.57;6.77;;;24.90;50.50;;;;;;5085221;28;20322;-69
2024/01/09 09:34:59;;;;;;;37.13;7.27;;;24.90;51.10;;;;;;5074818;28;20203;-69
2024/01/09 09:37:26;;;;;;;34.57;6.00;;;25.00;49.90;;;;;;5075594;28;20202;-69
2024/01/09 09:39:53;;;;;;;37.97;6.63;;;25.10;49.70;;;;;;5067727;28;20288;-70
2024/01/09 09:42:22;;;;;;;28.00;4.97;;;25.10;49.60;;;;;;5082214;28;20272;-68
2024/01/09 09:44:53;;;;;;;31.10;5.77;;;25.20;49.30;;;;;;5083919;28;20259;-69
2024/01/09 09:47:23;;;;;;;33.27;5.93;;;25.20;48.60;;;;;;5084646;28;20285;-68
2024/01/09 09:49:52;;;;;;;33.13;5.90;;;25.20;48.50;;;;;;5083686;28;20286;-69
2024/01/09 09:52:20;;;;;;;34.83;6.23;;;25.30;49.00;;;;;;5070429;28;20234;-68
2024/01/09 09:54:47;;;;;;;24.93;4.73;;;25.40;48.80;;;;;;5064839;28;20203;-67
2024/01/09 09:57:16;;;;;;;30.47;5.10;;;25.40;48.60;;;;;;5068943;28;20294;-68
2024/01/09 09:59:43;;;;;;;30.93;5.63;;;25.40;48.70;;;;;;5068670;28;20287;-70
2024/01/09 10:02:25;;;;;;;25.93;5.03;;;25.50;48.60;;;;;;5071755;28;20287;-68
2024/01/09 10:04:53;;;;;;;33.43;5.03;;;25.50;47.20;;;;;;5066065;28;20199;-71
2024/01/09 10:07:21;;;;;;;33.57;5.53;;;25.60;48.40;;;;;;5053890;28;20287;-70
2024/01/09 10:09:55;;;;;;;29.73;5.90;;;25.60;48.60;;;;;;5053624;28;20662;-70
2024/01/09 10:12:24;;;;;;;37.20;6.47;;;25.70;47.10;;;;;;5063453;28;20226;-71
2024/01/09 10:15:08;;;;;;;20.17;4.80;;;25.80;48.30;;;;;;5070631;28;20195;-68
2024/01/09 10:17:37;;;;;;;80.83;10.33;;;25.90;46.60;;;;;;5065366;28;20230;-68
2024/01/09 10:20:05;;;;;;;24.87;4.97;;;26.10;48.00;;;;;;5062785;28;20202;-69
2024/01/09 10:22:35;;;;;;;32.23;5.60;;;26.30;48.20;;;;;;5066450;28;20204;-67
2024/01/09 10:25:04;;;;;;;25.67;5.57;;;26.50;48.10;;;;;;5071171;28;20203;-69
2024/01/09 10:27:31;;;;;;;34.27;6.17;;;26.70;47.60;;;;;;5068683;28;20240;-69
2024/01/09 10:29:59;;;;;;;34.27;5.50;;;26.90;48.30;;;;;;5069753;28;20208;-68
2024/01/09 10:32:26;;;;;;;27.33;5.50;;;27.10;47.40;;;;;;5068645;28;20806;-81
2024/01/09 10:34:54;;;;;;;38.83;6.50;;;27.30;47.10;;;;;;5064457;28;20196;-81
2024/01/09 10:37:21;;;;;;;37.90;5.83;;;27.50;46.60;;;;;;5067566;28;20200;-77
2024/01/09 10:39:50;;;;;;;37.23;6.90;;;27.70;46.50;;;;;;5066828;28;20198;-79
2024/01/09 10:42:17;;;;;;;63.17;8.50;;;27.90;46.50;;;;;;5059815;28;20192;-78
2024/01/09 10:44:47;;;;;;;29.93;5.33;;;28.00;46.60;;;;;;5052461;28;20204;-76
2024/01/09 10:47:15;;;;;;;65.37;8.27;;;28.20;46.10;;;;;;5066300;28;20200;-77
2024/01/09 10:49:43;;;;;;;31.47;5.23;;;28.40;46.70;;;;;;5067161;28;20202;-77
2024/01/09 10:52:14;;;;;;;27.40;5.33;;;28.60;46.80;;;;;;5066306;28;20219;-77
2024/01/09 10:54:42;;;;;;;26.27;4.93;;;28.70;45.30;;;;;;5067500;28;20212;-77
2024/01/09 10:57:13;;;;;;;24.97;4.60;;;29.00;46.10;;;;;;5068463;28;20206;-78
2024/01/09 10:59:41;;;;;;;34.57;5.57;;;29.20;45.40;;;;;;5066726;28;20299;-79
2024/01/09 11:02:15;;;;;;;39.28;6.15;;;29.40;45.60;;;;;;5067614;28;20687;-80
2024/01/09 11:04:43;;;;;;;38.08;5.75;;;29.60;43.80;;;;;;5066294;28;20208;-80
2024/01/09 11:07:14;;;;;;;27.83;4.95;;;29.70;44.30;;;;;;5065376;28;20648;-82
2024/01/09 11:09:43;;;;;;;34.47;5.00;;;29.80;43.50;;;;;;5064041;28;20210;-83
2024/01/09 11:12:15;;;;;;;25.98;4.63;;;29.90;43.70;;;;;;5059353;28;20245;-81
2024/01/09 11:14:46;;;;;;;38.33;6.18;;;30.00;43.00;;;;;;5067221;28;20818;-87
2024/01/09 11:17:14;;;;;;;78.93;9.32;;;30.00;42.90;;;;;;5067395;28;20282;-81
2024/01/09 11:19:41;;;;;;;40.70;5.97;;;30.10;42.80;;;;;;5070605;28;20551;-80
2024/01/09 11:22:17;;;;;;;55.00;7.32;;;30.20;42.80;;;;;;5066246;28;20216;-81
2024/01/09 11:24:46;;;;;;;33.53;5.88;;;30.20;40.80;;;;;;5066983;28;20266;-81
2024/01/09 11:27:14;;;;;;;18.58;4.35;;;30.30;41.80;;;;;;5068541;28;20654;-83
2024/01/09 11:29:48;;;;;;;20.77;4.25;;;30.40;41.90;;;;;;5068471;28;20211;-80
2024/01/09 11:32:16;;;;;;;20.43;3.80;;;30.40;40.20;;;;;;5068258;28;20242;-80
2024/01/09 11:34:45;;;;;;;20.50;4.20;;;30.50;41.30;;;;;;5068421;28;20211;-81
2024/01/09 11:37:19;;;;;;;25.73;4.53;;;30.40;40.80;;;;;;5068975;28;20295;-80
2024/01/09 11:39:47;;;;;;;25.47;4.67;;;30.50;39.50;;;;;;5064123;28;20652;-80
2024/01/09 11:42:15;;;;;;;39.83;6.17;;;30.50;40.60;;;;;;5054017;28;20326;-81
2024/01/09 11:44:42;;;;;;;26.97;4.57;;;30.40;40.30;;;;;;5067958;28;20203;-80
2024/01/09 11:47:09;;;;;;;18.90;4.23;;;30.40;40.10;;;;;;5068254;28;20615;-79
2024/01/09 11:49:36;;;;;;;20.43;4.00;;;30.30;40.00;;;;;;5067362;28;20249;-80
2024/01/09 11:52:03;;;;;;;19.90;4.07;;;30.30;39.90;;;;;;5068405;28;20684;-81
2024/01/09 11:54:33;;;;;;;53.63;6.70;;;30.20;39.90;;;;;;5066350;28;20213;-80
2024/01/09 11:57:00;;;;;;;28.73;5.47;;;30.20;39.20;;;;;;5052517;28;20286;-80
2024/01/09 11:59:30;;;;;;;20.17;4.13;;;30.20;39.70;;;;;;5063343;28;20236;-80
2024/01/09 12:01:57;;;;;;;25.07;4.60;;;30.20;39.70;;;;;;5063974;28;20826;-83
2024/01/09 12:04:24;;;;;;;41.33;5.87;;;30.20;39.70;;;;;;5067923;28;20203;-82
2024/01/09 12:06:51;;;;;;;47.27;6.27;;;30.10;39.50;;;;;;5062327;28;20283;-82
2024/01/09 12:09:18;;;;;;;21.67;4.30;;;30.20;39.40;;;;;;5069045;28;20301;-80
2024/01/09 12:11:47;;;;;;;25.20;5.17;;;30.20;39.30;;;;;;5067376;28;20302;-80
2024/01/09 12:14:14;;;;;;;18.50;4.17;;;30.20;39.50;;;;;;5068884;28;20314;-79
2024/01/09 12:16:41;;;;;;;38.40;5.97;;;30.20;39.10;;;;;;5066493;28;20218;-80
2024/01/09 12:19:08;;;;;;;37.53;5.70;;;30.20;39.00;;;;;;5064690;28;20187;-81
2024/01/09 12:21:35;;;;;;;34.20;5.53;;;30.20;38.90;;;;;;5066710;28;20302;-79
2024/01/09 12:24:05;;;;;;;26.63;5.10;;;30.20;38.80;;;;;;5068014;28;20210;-80
2024/01/09 12:26:33;;;;;;;29.07;4.70;;;30.30;38.50;;;;;;5067173;28;20220;-80
2024/01/09 12:29:04;;;;;;;25.63;4.57;;;30.20;38.40;;;;;;5067561;28;20294;-80
2024/01/09 12:31:32;;;;;;;26.37;4.60;;;30.30;38.00;;;;;;5066961;28;20717;-79
2024/01/09 12:33:59;;;;;;;28.33;4.63;;;30.30;38.30;;;;;;5066488;28;20649;-80
2024/01/09 12:36:27;;;;;;;43.00;6.13;;;30.30;38.20;;;;;;5064268;28;20283;-80
2024/01/09 12:38:56;;;;;;;24.77;4.13;;;30.30;38.00;;;;;;5067014;28;20648;-81
2024/01/09 12:41:23;;;;;;;24.20;4.70;;;30.20;37.90;;;;;;5057531;28;20228;-81
2024/01/09 12:43:50;;;;;;;23.33;4.17;;;30.20;37.80;;;;;;5056649;28;20604;-88
2024/01/09 12:46:20;;;;;;;27.07;4.83;;;30.20;38.20;;;;;;5066857;28;20201;-79
2024/01/09 12:48:48;;;;;;;47.20;6.93;;;30.10;37.10;;;;;;5064272;28;20191;-80
2024/01/09 12:51:15;;;;;;;24.53;4.50;;;30.10;38.00;;;;;;5067444;28;20203;-80
2024/01/09 12:53:43;;;;;;;58.83;7.37;;;30.00;37.30;;;;;;5065042;28;20233;-91
2024/01/09 12:56:14;;;;;;;21.33;3.83;;;30.00;37.90;;;;;;5063239;28;20203;-83
2024/01/09 12:58:44;;;;;;;34.20;5.90;;;29.90;36.80;;;;;;5067507;28;20564;-86
2024/01/09 13:01:11;;;;;;;47.73;6.10;;;29.90;36.90;;;;;;5065405;28;20203;-81
2024/01/09 13:03:40;;;;;;;24.30;4.43;;;29.90;37.10;;;;;;5068085;28;20286;-82
2024/01/09 13:06:10;;;;;;;28.77;4.57;;;29.80;36.80;;;;;;5067962;28;20284;-80
2024/01/09 13:08:38;;;;;;;19.03;3.87;;;29.80;37.00;;;;;;5068200;28;20278;-80
2024/01/09 13:11:09;;;;;;;24.03;4.27;;;29.80;36.90;;;;;;5065594;28;20207;-80
2024/01/09 13:13:37;;;;;;;22.60;4.43;;;29.70;36.60;;;;;;5063604;28;20230;-80
2024/01/09 13:16:06;;;;;;;20.47;3.83;;;29.70;36.70;;;;;;5068284;28;20210;-81
2024/01/09 13:18:33;;;;;;;26.43;4.40;;;29.60;36.60;;;;;;5065824;28;21007;-80
2024/01/09 13:21:02;;;;;;;21.17;3.90;;;29.60;36.70;;;;;;5066177;28;20571;-80
2024/01/09 13:23:30;;;;;;;26.07;4.67;;;29.60;36.60;;;;;;5066705;28;20203;-80
2024/01/09 13:26:01;;;;;;;21.57;4.20;;;29.60;36.60;;;;;;5067046;28;20300;-81
2024/01/09 13:28:28;;;;;;;39.20;6.53;;;29.50;36.40;;;;;;5067665;28;20708;-80
2024/01/09 13:30:55;;;;;;;30.90;5.50;;;29.50;35.30;;;;;;5066565;28;20307;-80
2024/01/09 13:33:22;;;;;;;31.70;5.30;;;29.40;34.70;;;;;;5067022;28;20235;-79
2024/01/09 13:35:49;;;;;;;22.03;4.40;;;29.20;34.90;;;;;;5067354;28;20279;-75
2024/01/09 13:38:17;;;;;;;31.63;5.20;;;29.00;35.10;;;;;;5066899;28;20291;-79
2024/01/09 13:40:44;;;;;;;29.87;4.70;;;28.70;35.00;;;;;;5071130;28;20238;-79
2024/01/09 13:43:11;;;;;;;24.17;3.90;;;28.60;35.40;;;;;;5066728;28;20200;-85
2024/01/09 13:45:38;;;;;;;28.03;4.90;;;28.50;35.60;;;;;;5070726;28;20237;-86
2024/01/09 13:48:06;;;;;;;22.10;4.50;;;28.30;35.60;;;;;;5066188;28;20308;-77
2024/01/09 13:50:33;;;;;;;34.73;4.97;;;28.30;35.70;;;;;;5070410;28;20949;-83
2024/01/09 13:52:59;;;;;;;26.83;4.50;;;28.20;35.70;;;;;;5070528;28;20576;-73
2024/01/09 13:55:27;;;;;;;28.37;4.87;;;28.20;35.80;;;;;;5054485;28;20282;-79
2024/01/09 13:57:54;;;;;;;22.53;4.27;;;28.10;35.70;;;;;;5050968;28;20192;-86
2024/01/09 14:00:21;;;;;;;22.83;4.10;;;28.10;35.90;;;;;;5054311;28;20290;-76
2024/01/09 14:02:48;;;;;;;22.77;4.10;;;28.00;36.00;;;;;;5070007;28;20298;-78
2024/01/09 14:05:16;;;;;;;29.23;5.00;;;28.00;35.90;;;;;;5057825;28;20238;-80
2024/01/09 14:07:43;;;;;;;27.03;4.63;;;28.00;36.00;;;;;;5069327;28;20192;-79
2024/01/09 14:10:12;;;;;;;25.20;4.70;;;28.00;35.90;;;;;;5069526;28;20824;-77
2024/01/09 14:12:40;;;;;;;29.10;5.17;;;28.00;35.70;;;;;;5068422;28;20196;-72
2024/01/09 14:15:08;;;;;;;21.23;4.87;;;28.00;35.70;;;;;;5069380;28;20210;-81
2024/01/09 14:17:36;;;;;;;25.33;4.73;;;28.00;35.80;;;;;;5070357;28;20205;-82
2024/01/09 14:20:03;;;;;;;22.57;4.70;;;28.00;35.80;;;;;;5053305;28;20284;-78
2024/01/09 14:22:30;;;;;;;24.40;4.37;;;28.00;35.80;;;;;;5069656;28;20950;-74
2024/01/09 14:24:57;;;;;;;22.17;4.07;;;27.90;35.70;;;;;;5062478;28;20208;-76
2024/01/09 14:27:24;;;;;;;22.23;4.30;;;27.90;35.70;;;;;;5050365;28;20329;-78
2024/01/09 14:29:54;;;;;;;18.07;3.50;;;27.90;35.70;;;;;;5066213;28;20287;-89
2024/01/09 14:32:21;;;;;;;20.70;4.03;;;27.90;35.50;;;;;;5071029;28;20200;-81
2024/01/09 14:34:48;;;;;;;32.37;5.20;;;27.90;36.30;;;;;;5068660;28;20259;-83
2024/01/09 14:37:15;;;;;;;21.10;3.83;;;27.90;35.70;;;;;;5069696;28;20935;-77
2024/01/09 14:39:42;;;;;;;23.17;4.47;;;27.90;35.70;;;;;;5068400;28;20651;-78
2024/01/09 15:09:35;;;;;;;71.75;63.70;;;25.00;42.10;;;;;;5090737;27;20937;-68
2024/01/09 15:12:02;;;;;;;88.87;80.67;;;24.70;44.30;;;;;;5064234;28;20612;-68
2024/01/09 15:14:29;;;;;;;66.17;54.57;;;24.70;43.90;;;;;;5065306;28;20278;-63
2024/01/09 15:16:57;;;;;;;60.43;46.43;;;24.90;43.70;;;;;;5064921;28;20203;-65
2024/01/09 15:19:24;;;;;;;71.63;57.53;;;25.10;43.80;;;;;;5065517;28;20214;-73
2024/01/09 15:21:51;;;;;;;74.97;64.93;;;25.30;43.70;;;;;;5067549;28;20730;-69
2024/01/09 15:24:18;;;;;;;46.90;40.20;;;25.40;43.50;;;;;;5065180;28;20310;-69
2024/01/09 15:26:46;;;;;;;63.60;46.63;;;25.40;43.40;;;;;;5064571;28;20223;-72
2024/01/09 15:29:13;;;;;;;73.70;66.13;;;25.60;43.10;;;;;;5067781;28;20387;-66
2024/01/09 15:31:40;;;;;;;75.67;59.20;;;25.70;42.80;;;;;;5066973;28;20275;-62
2024/01/09 15:34:08;;;;;;;70.60;63.77;;;25.90;42.70;;;;;;5075713;28;20199;-64
2024/01/09 15:36:39;;;;;;;47.43;39.33;;;26.00;42.90;;;;;;5084835;28;20945;-63
2024/01/09 15:39:06;;;;;;;52.60;46.30;;;26.10;43.00;;;;;;5058818;28;20923;-62
2024/01/09 15:41:33;;;;;;;99.93;89.13;;;26.10;43.30;;;;;;5054448;28;20550;-62
2024/01/09 15:44:06;;;;;;;140.07;129.00;;;26.20;43.50;;;;;;5044414;28;20331;-65
2024/01/09 15:46:33;;;;;;;85.50;76.47;;;26.20;43.50;;;;;;5044289;28;20203;-65
2024/01/09 16:13:39;;;;;;;;;;;;;;;;;;;;;
2024/01/09 16:20:26;;;;;;;96.80;42.23;;;15.00;26.80;;;;;;6276054;22;20657;-96
2024/01/09 16:23:03;;;;;;;104.53;49.13;;;13.90;27.50;;;;;;6294964;22;20181;-95
2024/01/09 16:25:45;;;;;;;76.00;55.67;;;12.70;27.70;;;;;;6297815;22;20189;-95
2024/01/09 16:28:28;;;;;;;82.50;51.13;;;12.70;28.80;;;;;;6295760;22;20225;-95
2024/01/09 16:31:07;;;;;;;102.63;56.13;;;12.00;29.30;;;;;;6295743;22;20209;-95
2024/01/09 16:33:43;;;;;;;88.80;57.00;;;11.30;29.80;;;;;;6298100;22;20170;-94
2024/01/09 16:36:22;;;;;;;124.30;63.77;;;10.80;30.10;;;;;;6301247;22;20175;-94
2024/01/09 16:39:23;;;;;;;105.23;57.77;;;10.10;30.90;;;;;;6302133;22;20251;-95
2024/01/09 16:42:08;;;;;;;77.17;51.53;;;9.50;32.10;;;;;;6300065;22;20174;-95
2024/01/09 16:47:21;;;;;;;91.20;57.03;;;8.70;33.70;;;;;;6304172;22;20181;-94
2024/01/09 16:49:51;;;;;;;126.83;55.80;;;8.20;34.20;;;;;;6303696;22;20230;-95
2024/01/09 16:52:20;;;;;;;109.30;62.93;;;7.80;34.90;;;;;;6299521;22;20497;-94
2024/01/09 16:54:50;;;;;;;122.43;65.23;;;7.50;34.90;;;;;;6288829;22;20171;-95
2024/01/09 16:57:23;;;;;;;90.73;60.60;;;6.40;34.80;;;;;;6294037;22;20171;-93
2024/01/09 17:00:17;;;;;;;133.17;61.67;;;6.80;36.00;;;;;;6265960;22;20208;-95
2024/01/09 17:02:49;;;;;;;67.50;50.37;;;6.30;36.60;;;;;;6292021;22;20171;-94
2024/01/09 17:05:18;;;;;;;101.37;55.83;;;6.30;36.50;;;;;;6282474;22;20170;-96
2024/01/09 17:08:03;;;;;;;86.37;53.70;;;7.20;37.30;;;;;;6282090;22;20631;-96
2024/01/09 17:10:31;;;;;;;87.17;54.17;;;5.80;37.40;;;;;;6285165;22;20198;-95
2024/01/09 17:13:03;;;;;;;98.13;57.00;;;5.60;37.30;;;;;;6277755;22;20166;-95
2024/01/09 17:15:31;;;;;;;105.47;58.57;;;5.50;37.40;;;;;;6278668;22;20174;-94
2024/01/09 17:18:01;;;;;;;116.77;56.40;;;5.40;38.20;;;;;;6291423;22;20165;-95
2024/01/09 17:20:33;;;;;;;79.00;52.67;;;4.70;37.50;;;;;;6290952;22;20219;-94
2024/01/09 17:23:18;;;;;;;82.60;64.97;;;5.10;38.30;;;;;;6293730;22;20170;-96
2024/01/09 17:25:51;;;;;;;91.50;52.47;;;4.80;38.70;;;;;;6291949;22;20645;-94
2024/01/09 17:28:20;;;;;;;91.37;55.07;;;4.80;39.20;;;;;;6289782;22;20199;-95
2024/01/09 17:31:04;;;;;;;68.97;58.20;;;4.50;38.80;;;;;;6267129;22;20232;-94
2024/01/09 17:33:50;;;;;;;107.17;59.30;;;4.40;38.60;;;;;;6301191;22;20184;-95
2024/01/09 17:36:20;;;;;;;116.17;54.87;;;4.30;38.70;;;;;;6301326;22;20240;-96
2024/01/09 17:38:56;;;;;;;105.10;57.67;;;4.20;38.20;;;;;;6301899;22;20200;-96
2024/01/09 17:41:27;;;;;;;92.83;65.53;;;4.80;38.90;;;;;;6297363;22;20176;-96
2024/01/09 17:47:33;;;;;;;101.03;60.03;;;4.80;39.00;;;;;;6289439;22;20156;-96
2024/01/09 18:03:09;;;;;;;67.23;53.03;;;2.70;38.20;;;;;;6263821;22;20208;-96
2024/01/09 21:18:25;;;;;;;94.87;57.17;;;2.50;41.60;;;;;;6251405;22;20203;-96
2024/01/09 23:28:27;;;;;;;76.60;54.33;;;1.80;42.10;;;;;;6260340;23;20184;-96
